Terminal Aerodrome Forecast
Issued by NWS Amarillo, TX

Home | Current Version | Previous Version | Text Only | Print | Product List | Glossary On
Versions: 1 2 3 4 5 6 7 8 9 10 11 12 13
000
FTUS44 KAMA 062320
TAFGUY
TAF
KGUY 062320Z 0700/0724 18016G26KT P6SM BKN200
     FM070200 17014KT P6SM BKN200
     FM071400 19022G32KT P6SM SCT080 BKN200=

USA.gov is the U.S. government's official web portal to all federal, state and local government web resources and services.